createdAt,value
2018-03-04T00:01:19.849Z,41.73
2018-03-04T00:03:48.292Z,41.77
2018-03-04T00:06:16.631Z,41.90
2018-03-04T00:08:45.752Z,45.30
2018-03-04T00:11:14.113Z,44.10
2018-03-04T00:13:42.461Z,42.90
2018-03-04T00:16:10.820Z,52.13
2018-03-04T00:18:39.163Z,43.50
2018-03-04T00:21:07.544Z,47.10
2018-03-04T00:23:35.887Z,41.17
2018-03-04T00:26:05.041Z,49.03
2018-03-04T00:28:33.386Z,47.80
2018-03-04T00:31:01.733Z,43.90
2018-03-04T00:33:30.091Z,42.53
2018-03-04T00:35:58.557Z,47.03
2018-03-04T00:38:26.920Z,44.77
2018-03-04T00:40:55.314Z,43.10
2018-03-04T00:43:23.778Z,45.67
2018-03-04T00:45:52.208Z,45.47
2018-03-04T00:48:20.556Z,44.80
2018-03-04T00:50:48.908Z,44.33
2018-03-04T00:53:17.258Z,49.03
2018-03-04T00:55:45.804Z,45.97
2018-03-04T00:58:14.156Z,44.90
2018-03-04T01:00:42.519Z,43.90
2018-03-04T01:03:10.876Z,41.43
2018-03-04T01:05:40.005Z,55.77
2018-03-04T01:08:08.433Z,46.40
2018-03-04T01:10:36.792Z,44.83
2018-03-04T01:13:05.174Z,46.67
2018-03-04T01:15:33.520Z,48.53
2018-03-04T01:18:02.115Z,46.10
2018-03-04T01:20:30.493Z,48.03
2018-03-04T01:22:58.847Z,55.30
2018-03-04T01:25:27.967Z,44.37
2018-03-04T01:27:56.318Z,47.03
2018-03-04T01:30:25.448Z,48.53
2018-03-04T01:32:53.786Z,51.17
2018-03-04T01:35:22.137Z,44.63
2018-03-04T01:37:50.483Z,47.50
2018-03-04T01:40:18.864Z,50.57
2018-03-04T01:42:47.227Z,50.50
2018-03-04T01:45:15.579Z,48.27
2018-03-04T01:47:44.733Z,51.27
2018-03-04T01:50:13.138Z,49.80
2018-03-04T01:52:41.579Z,52.93
2018-03-04T01:55:09.959Z,49.70
2018-03-04T01:57:38.300Z,43.60
2018-03-04T02:00:07.415Z,52.73
2018-03-04T02:02:35.771Z,52.60
2018-03-04T02:05:04.903Z,48.07
2018-03-04T02:07:33.248Z,49.93
2018-03-04T02:10:02.364Z,53.80
2018-03-04T02:12:31.487Z,56.47
2018-03-04T02:14:59.835Z,50.20
2018-03-04T02:17:28.196Z,46.67
2018-03-04T02:19:56.544Z,52.10
2018-03-04T02:22:24.948Z,47.80
2018-03-04T02:24:53.306Z,53.57
2018-03-04T02:27:21.725Z,52.60
2018-03-04T02:29:50.072Z,52.10
2018-03-04T02:32:18.422Z,55.47
2018-03-04T02:34:46.778Z,48.90
2018-03-04T02:37:15.121Z,53.87
2018-03-04T02:39:43.489Z,46.97
2018-03-04T02:42:11.836Z,56.03
2018-03-04T02:44:40.213Z,50.80
2018-03-04T02:47:08.584Z,51.30
2018-03-04T02:49:37.030Z,54.53
2018-03-04T02:52:06.272Z,51.43
2018-03-04T02:54:34.625Z,48.97
2018-03-04T02:57:03.004Z,49.83
2018-03-04T02:59:31.460Z,57.87
2018-03-04T03:02:00.576Z,50.53
2018-03-04T03:04:29.709Z,50.53
2018-03-04T03:06:58.158Z,54.00
2018-03-04T03:09:27.284Z,49.93
2018-03-04T03:11:55.742Z,55.57
2018-03-04T03:14:24.137Z,53.70
2018-03-04T03:16:52.507Z,56.40
2018-03-04T03:19:20.898Z,58.23
2018-03-04T03:21:49.261Z,56.07
2018-03-04T03:24:17.654Z,56.17
2018-03-04T03:26:46.022Z,59.47
2018-03-04T03:29:15.189Z,56.90
2018-03-04T03:31:44.156Z,55.10
2018-03-04T03:34:12.494Z,58.83
2018-03-04T03:36:40.889Z,61.50
2018-03-04T03:39:09.258Z,60.43
2018-03-04T03:41:37.656Z,61.23
2018-03-04T03:44:06.189Z,60.77
2018-03-04T03:46:34.535Z,62.17
2018-03-04T03:49:02.913Z,55.37
2018-03-04T03:51:31.270Z,55.10
2018-03-04T03:53:59.635Z,60.33
2018-03-04T03:56:27.988Z,55.47
2018-03-04T03:58:57.866Z,58.83
2018-03-04T04:01:26.214Z,63.17
2018-03-04T04:03:54.565Z,61.50
2018-03-04T04:06:23.679Z,65.93
2018-03-04T04:08:52.115Z,57.80
2018-03-04T04:11:20.508Z,64.73
2018-03-04T04:13:49.820Z,58.07
2018-03-04T04:16:18.238Z,63.43
2018-03-04T04:18:46.599Z,63.20
2018-03-04T04:21:14.985Z,64.77
2018-03-04T04:23:43.363Z,65.67
2018-03-04T04:26:11.717Z,65.33
2018-03-04T04:28:40.890Z,63.60
2018-03-04T04:31:09.199Z,63.47
2018-03-04T04:33:37.553Z,65.83
2018-03-04T04:36:06.042Z,62.47
2018-03-04T04:38:34.415Z,68.03
2018-03-04T04:41:02.765Z,67.77
2018-03-04T04:43:31.114Z,62.80
2018-03-04T04:45:59.488Z,64.97
2018-03-04T04:48:27.836Z,63.13
2018-03-04T04:50:56.958Z,69.37
2018-03-04T04:53:25.312Z,63.67
2018-03-04T04:55:54.420Z,63.93
2018-03-04T04:58:22.788Z,62.40
2018-03-04T05:00:51.920Z,64.70
2018-03-04T05:03:20.285Z,70.43
2018-03-04T05:05:48.667Z,64.37
2018-03-04T05:08:17.032Z,66.40
2018-03-04T05:10:46.256Z,78.03
2018-03-04T05:13:14.623Z,64.20
2018-03-04T05:15:43.017Z,66.57
2018-03-04T05:18:11.373Z,63.13
2018-03-04T05:20:40.560Z,68.23
2018-03-04T05:23:09.664Z,70.80
2018-03-04T05:25:38.023Z,73.77
2018-03-04T05:28:06.373Z,67.27
2018-03-04T05:30:34.733Z,63.93
2018-03-04T05:33:03.110Z,73.17
2018-03-04T05:35:31.608Z,60.20
2018-03-04T05:37:59.986Z,68.37
2018-03-04T05:40:28.358Z,62.33
2018-03-04T05:42:56.723Z,66.33
2018-03-04T05:45:25.086Z,71.20
2018-03-04T05:47:53.429Z,70.43
2018-03-04T05:50:21.792Z,65.80
2018-03-04T05:52:50.232Z,74.13
2018-03-04T05:55:18.596Z,71.23
2018-03-04T05:57:47.114Z,63.40
2018-03-04T06:00:15.442Z,65.27
2018-03-04T06:02:43.794Z,70.33
2018-03-04T06:05:12.135Z,70.57
2018-03-04T06:07:40.499Z,71.20
2018-03-04T06:10:08.844Z,70.93
2018-03-04T06:12:37.288Z,74.93
2018-03-04T06:15:05.673Z,69.53
2018-03-04T06:17:34.012Z,70.07
2018-03-04T06:20:03.132Z,72.60
2018-03-04T06:22:31.509Z,63.00
2018-03-04T06:24:59.851Z,68.70
2018-03-04T06:27:28.976Z,76.30
2018-03-04T06:29:57.352Z,68.23
2018-03-04T06:32:25.675Z,72.93
2018-03-04T06:34:54.022Z,67.77
2018-03-04T06:37:22.376Z,69.70
2018-03-04T06:39:50.724Z,68.97
2018-03-04T06:42:19.084Z,71.17
2018-03-04T06:44:47.547Z,81.47
2018-03-04T06:47:15.916Z,81.97
2018-03-04T06:49:44.419Z,75.40
2018-03-04T06:52:12.771Z,67.83
2018-03-04T06:54:41.144Z,71.00
2018-03-04T06:57:10.037Z,65.93
2018-03-04T06:59:38.389Z,75.50
2018-03-04T07:02:07.510Z,71.10
2018-03-04T07:04:35.918Z,66.73
2018-03-04T07:07:04.251Z,69.60
2018-03-04T07:09:32.624Z,71.27
2018-03-04T07:12:01.770Z,70.37
2018-03-04T07:14:30.133Z,76.67
2018-03-04T07:16:58.540Z,69.07
2018-03-04T07:19:26.872Z,67.27
2018-03-04T07:21:56.001Z,80.80
2018-03-04T07:24:24.436Z,72.87
2018-03-04T07:26:52.821Z,74.97
2018-03-04T07:29:21.944Z,81.00
2018-03-04T07:31:51.245Z,71.80
2018-03-04T07:34:19.604Z,77.53
2018-03-04T07:36:47.960Z,73.83
2018-03-04T07:39:16.320Z,77.03
2018-03-04T07:41:44.752Z,77.30
2018-03-04T07:44:14.076Z,74.40
2018-03-04T07:46:42.604Z,79.00
2018-03-04T07:49:10.949Z,72.60
2018-03-04T07:51:39.312Z,69.00
2018-03-04T07:54:07.663Z,68.80
2018-03-04T07:56:36.858Z,74.10
2018-03-04T07:59:05.965Z,75.53
2018-03-04T08:01:34.305Z,63.43
2018-03-04T08:04:02.753Z,72.27
2018-03-04T08:06:31.122Z,69.53
2018-03-04T08:08:59.512Z,68.77
2018-03-04T08:11:28.023Z,68.17
2018-03-04T08:13:56.335Z,70.60
2018-03-04T08:16:24.675Z,71.30
2018-03-04T08:18:53.024Z,64.00
2018-03-04T08:21:21.401Z,67.27
2018-03-04T08:23:49.749Z,70.73
2018-03-04T08:26:30.732Z,72.40
2018-03-04T08:28:59.081Z,70.47
2018-03-04T08:31:27.485Z,64.50
2018-03-04T08:33:56.592Z,70.67
2018-03-04T08:36:25.079Z,68.10
2018-03-04T08:38:53.425Z,70.63
2018-03-04T08:41:22.705Z,66.37
2018-03-04T08:43:51.150Z,65.77
2018-03-04T08:46:19.556Z,68.23
2018-03-04T08:48:47.896Z,70.60
2018-03-04T08:51:16.239Z,67.97
2018-03-04T08:53:45.384Z,62.93
2018-03-04T08:56:13.738Z,63.10
2018-03-04T08:58:42.365Z,68.50
2018-03-04T09:01:11.427Z,67.80
2018-03-04T09:03:39.843Z,67.70
2018-03-04T09:06:08.181Z,62.67
2018-03-04T09:08:36.551Z,61.10
2018-03-04T09:11:04.888Z,66.03
2018-03-04T09:13:33.229Z,64.27
2018-03-04T09:16:01.618Z,66.10
2018-03-04T09:18:29.981Z,66.33
2018-03-04T09:20:58.321Z,64.27
2018-03-04T09:23:26.671Z,71.30
2018-03-04T09:25:55.032Z,65.27
2018-03-04T09:28:23.396Z,66.47
2018-03-04T09:30:51.749Z,64.33
2018-03-04T09:33:20.870Z,64.93
2018-03-04T09:35:49.237Z,63.00
2018-03-04T09:38:18.340Z,67.83
2018-03-04T09:40:46.710Z,63.60
2018-03-04T09:43:15.836Z,66.83
2018-03-04T09:45:44.182Z,68.33
2018-03-04T09:48:13.314Z,66.50
2018-03-04T09:50:41.706Z,64.37
2018-03-04T09:53:10.040Z,65.47
2018-03-04T09:55:38.391Z,66.20
2018-03-04T09:58:06.749Z,72.70
2018-03-04T10:00:35.112Z,81.77
2018-03-04T10:03:03.581Z,67.73
2018-03-04T10:05:31.951Z,70.27
2018-03-04T10:08:00.293Z,62.80
2018-03-04T10:10:28.641Z,70.53
2018-03-04T10:12:57.016Z,69.83
2018-03-04T10:15:25.376Z,66.13
2018-03-04T10:17:53.712Z,66.23
2018-03-04T10:20:22.872Z,66.67
2018-03-04T10:22:51.946Z,66.23
2018-03-04T10:25:20.385Z,64.17
2018-03-04T10:27:48.807Z,63.87
2018-03-04T10:30:17.197Z,69.13
2018-03-04T10:32:45.556Z,65.67
2018-03-04T10:35:13.896Z,70.30
2018-03-04T10:37:42.250Z,63.90
2018-03-04T10:40:10.587Z,73.53
2018-03-04T10:42:39.016Z,80.07
2018-03-04T10:45:07.383Z,66.40
2018-03-04T10:47:35.765Z,69.27
2018-03-04T10:50:04.193Z,71.90
2018-03-04T10:52:33.298Z,68.17
2018-03-04T10:55:02.437Z,64.87
2018-03-04T10:57:30.791Z,62.50
2018-03-04T10:59:59.151Z,69.30
2018-03-04T11:02:33.117Z,65.43
2018-03-04T11:05:01.475Z,69.43
2018-03-04T11:07:29.826Z,70.83
2018-03-04T11:09:58.173Z,64.23
2018-03-04T11:12:26.612Z,68.47
2018-03-04T11:14:54.941Z,73.63
2018-03-04T11:17:24.172Z,71.57
2018-03-04T11:19:52.532Z,67.80
2018-03-04T11:22:20.942Z,68.40
2018-03-04T11:24:49.301Z,73.03
2018-03-04T11:27:17.728Z,68.83
2018-03-04T11:29:46.081Z,68.53
2018-03-04T11:32:14.422Z,66.50
2018-03-04T11:34:43.565Z,69.93
2018-03-04T11:37:11.916Z,66.57
2018-03-04T11:39:40.358Z,74.90
2018-03-04T11:42:08.797Z,67.93
2018-03-04T11:44:37.278Z,63.97
2018-03-04T11:47:05.723Z,66.10
2018-03-04T11:49:34.832Z,61.70
2018-03-04T11:52:03.965Z,62.90
2018-03-04T11:54:32.310Z,63.50
2018-03-04T11:57:00.644Z,61.10
2018-03-04T11:59:28.995Z,64.93
2018-03-04T12:01:57.332Z,67.00
2018-03-04T12:04:26.469Z,63.73
2018-03-04T12:06:54.928Z,63.97
2018-03-04T12:09:23.310Z,65.03
2018-03-04T12:11:52.426Z,66.60
2018-03-04T12:14:20.766Z,72.00
2018-03-04T12:16:49.893Z,63.93
2018-03-04T12:19:18.288Z,69.60
2018-03-04T12:21:46.656Z,68.03
2018-03-04T12:24:14.997Z,63.93
2018-03-04T12:26:43.450Z,62.37
2018-03-04T12:29:11.893Z,64.87
2018-03-04T12:31:40.271Z,66.07
2018-03-04T12:34:08.608Z,69.93
2018-03-04T12:36:36.963Z,65.10
2018-03-04T12:39:05.315Z,63.47
2018-03-04T12:41:33.677Z,63.43
2018-03-04T12:44:02.053Z,66.00
2018-03-04T12:46:30.399Z,57.93
2018-03-04T12:48:59.520Z,63.63
2018-03-04T12:51:28.697Z,65.30
2018-03-04T12:53:57.036Z,61.07
2018-03-04T12:56:25.520Z,67.73
2018-03-04T12:58:53.866Z,60.00
2018-03-04T13:01:22.214Z,66.43
2018-03-04T13:03:50.579Z,69.07
2018-03-04T13:06:19.111Z,60.73
2018-03-04T13:08:47.490Z,68.30
2018-03-04T13:11:15.840Z,68.57
2018-03-04T13:13:44.214Z,60.90
2018-03-04T13:16:12.563Z,63.30
2018-03-04T13:18:40.898Z,63.90
2018-03-04T13:21:09.246Z,62.83
2018-03-04T13:23:38.447Z,55.43
2018-03-04T13:26:06.863Z,65.47
2018-03-04T13:28:35.224Z,81.27
2018-03-04T13:31:03.614Z,61.47
2018-03-04T13:33:31.953Z,57.47
2018-03-04T13:36:00.321Z,59.63
2018-03-04T13:38:28.672Z,59.47
2018-03-04T13:40:57.041Z,58.47
2018-03-04T13:43:25.393Z,74.17
2018-03-04T13:45:53.771Z,58.80
2018-03-04T13:48:23.014Z,60.87
2018-03-04T13:50:51.377Z,62.70
2018-03-04T13:53:19.756Z,58.70
2018-03-04T13:55:48.159Z,59.87
2018-03-04T13:58:16.515Z,60.57
2018-03-04T14:00:44.889Z,59.27
2018-03-04T14:03:13.236Z,57.30
2018-03-04T14:05:42.482Z,66.23
2018-03-04T14:08:10.832Z,63.80
2018-03-04T14:10:39.240Z,58.60
2018-03-04T14:13:07.697Z,56.03
2018-03-04T14:15:36.029Z,59.30
2018-03-04T14:18:04.407Z,58.77
2018-03-04T14:20:32.758Z,58.50
2018-03-04T14:23:01.113Z,59.83
2018-03-04T14:25:29.485Z,58.03
2018-03-04T14:27:58.047Z,57.70
2018-03-04T14:30:26.393Z,56.07
2018-03-04T14:32:54.757Z,57.83
2018-03-04T14:35:23.120Z,57.37
2018-03-04T14:37:51.468Z,54.20
2018-03-04T14:40:20.585Z,52.27
2018-03-04T14:42:48.972Z,52.90
2018-03-04T14:45:17.330Z,52.73
2018-03-04T14:47:46.457Z,52.33
2018-03-04T14:50:14.805Z,52.20
2018-03-04T14:52:46.889Z,53.90
2018-03-04T14:55:15.269Z,46.73
2018-03-04T14:57:43.657Z,46.10
2018-03-04T15:00:12.146Z,46.80
2018-03-04T15:02:40.511Z,47.73
2018-03-04T15:05:08.896Z,48.23
2018-03-04T15:07:37.272Z,46.23
2018-03-04T15:10:05.630Z,47.10
2018-03-04T15:12:34.049Z,47.03
2018-03-04T15:15:02.520Z,52.13
2018-03-04T15:17:30.880Z,49.93
2018-03-04T15:19:59.297Z,48.63
2018-03-04T15:22:27.767Z,50.80
2018-03-04T15:24:56.100Z,53.33
2018-03-04T15:27:25.206Z,52.17
2018-03-04T15:29:54.449Z,52.60
2018-03-04T15:32:22.787Z,51.50
2018-03-04T15:34:51.158Z,48.77
2018-03-04T15:37:20.272Z,47.93
2018-03-04T15:39:48.709Z,50.77
2018-03-04T15:42:17.083Z,52.63
2018-03-04T15:44:45.441Z,66.20
2018-03-04T15:47:13.809Z,47.20
2018-03-04T15:49:42.165Z,49.67
2018-03-04T15:52:10.511Z,51.87
2018-03-04T15:54:38.880Z,50.13
2018-03-04T15:57:07.277Z,47.40
2018-03-04T15:59:35.636Z,46.37
2018-03-04T16:02:03.972Z,49.70
2018-03-04T16:04:32.437Z,45.57
2018-03-04T16:07:00.785Z,50.93
2018-03-04T16:09:29.229Z,51.80
2018-03-04T16:11:57.571Z,52.50
2018-03-04T16:14:26.696Z,96.47
2018-03-04T16:16:55.070Z,52.63
2018-03-04T16:19:23.529Z,48.40
2018-03-04T16:21:51.915Z,46.77
2018-03-04T16:24:20.382Z,49.23
2018-03-04T16:26:48.748Z,51.83
2018-03-04T16:29:17.873Z,50.60
2018-03-04T16:31:46.225Z,47.27
2018-03-04T16:34:14.597Z,49.60
2018-03-04T16:36:42.942Z,48.63
2018-03-04T16:39:11.340Z,53.30
2018-03-04T16:41:39.636Z,52.03
2018-03-04T16:44:08.005Z,48.53
2018-03-04T16:46:36.355Z,52.20
2018-03-04T16:49:04.794Z,50.03
2018-03-04T16:51:34.110Z,52.97
2018-03-04T16:54:03.431Z,52.57
2018-03-04T16:56:31.938Z,53.97
2018-03-04T16:59:01.175Z,49.77
2018-03-04T17:01:29.573Z,48.03
2018-03-04T17:03:57.992Z,56.77
2018-03-04T17:06:26.348Z,58.77
2018-03-04T17:08:54.707Z,49.37
2018-03-04T17:11:23.073Z,69.17
2018-03-04T17:13:51.422Z,63.47
2018-03-04T17:16:19.793Z,53.83
2018-03-04T17:18:48.156Z,56.43
2018-03-04T17:21:16.515Z,62.17
2018-03-04T17:23:44.937Z,60.77
2018-03-04T17:26:14.364Z,60.77
2018-03-04T17:28:43.524Z,55.07
2018-03-04T17:31:12.370Z,69.53
2018-03-04T17:33:41.548Z,65.70
2018-03-04T17:36:09.917Z,64.80
2018-03-04T17:38:38.264Z,60.60
2018-03-04T17:41:06.642Z,62.10
2018-03-04T17:43:35.218Z,65.00
2018-03-04T17:46:03.548Z,63.70
2018-03-04T17:48:32.680Z,68.20
2018-03-04T17:51:01.034Z,65.53
2018-03-04T17:53:30.178Z,66.93
2018-03-04T17:55:58.526Z,63.43
2018-03-04T17:58:26.876Z,61.67
2018-03-04T18:00:55.233Z,66.80
2018-03-04T18:03:23.690Z,64.37
2018-03-04T18:05:53.334Z,68.20
2018-03-04T18:08:21.675Z,66.47
2018-03-04T18:10:50.030Z,86.93
2018-03-04T18:13:18.435Z,77.90
2018-03-04T18:15:46.796Z,64.60
2018-03-04T18:18:15.159Z,61.33
2018-03-04T18:20:43.903Z,64.20
2018-03-04T18:23:12.391Z,64.40
2018-03-04T18:25:40.846Z,67.13
2018-03-04T18:28:09.212Z,62.33
2018-03-04T18:30:37.564Z,61.23
2018-03-04T18:33:06.719Z,60.43
2018-03-04T18:35:35.167Z,64.80
2018-03-04T18:38:03.512Z,62.30
2018-03-04T18:40:31.921Z,63.33
2018-03-04T18:43:00.402Z,61.43
2018-03-04T18:45:28.781Z,55.03
2018-03-04T18:47:57.154Z,54.67
2018-03-04T18:50:25.551Z,70.20
2018-03-04T18:52:53.894Z,75.90
2018-03-04T18:55:23.035Z,58.33
2018-03-04T18:57:51.413Z,59.67
2018-03-04T19:00:19.853Z,65.53
2018-03-04T19:02:48.198Z,69.87
2018-03-04T19:05:16.586Z,75.67
2018-03-04T19:07:44.976Z,75.73
2018-03-04T19:10:14.120Z,74.77
2018-03-04T19:12:42.506Z,75.70
2018-03-04T19:15:10.870Z,81.53
2018-03-04T19:17:39.309Z,74.03
2018-03-04T19:20:07.689Z,75.93
2018-03-04T19:22:36.152Z,75.53
2018-03-04T19:25:04.527Z,73.20
2018-03-04T19:27:32.885Z,72.67
2018-03-04T19:30:01.254Z,73.87
2018-03-04T19:32:29.604Z,73.47
2018-03-04T19:34:58.430Z,82.17
2018-03-04T19:37:26.915Z,67.17
2018-03-04T19:39:55.266Z,65.47
2018-03-04T19:42:23.652Z,60.13
2018-03-04T19:44:52.005Z,54.70
2018-03-04T19:47:21.208Z,62.23
2018-03-04T19:49:50.314Z,58.33
2018-03-04T19:52:19.484Z,57.80
2018-03-04T19:54:48.654Z,59.37
2018-03-04T19:57:16.996Z,54.97
2018-03-04T19:59:45.350Z,58.67
2018-03-04T20:02:13.803Z,66.60
2018-03-04T20:04:42.111Z,56.70
2018-03-04T20:07:11.240Z,55.90
2018-03-04T20:09:40.385Z,57.80
2018-03-04T20:12:08.915Z,54.13
2018-03-04T20:14:37.324Z,51.60
2018-03-04T20:17:05.660Z,54.40
2018-03-04T20:19:34.926Z,53.97
2018-03-04T20:22:03.252Z,53.67
2018-03-04T20:24:31.597Z,50.83
2018-03-04T20:26:59.964Z,55.50
2018-03-04T20:29:28.402Z,50.03
2018-03-04T20:31:57.111Z,51.17
2018-03-04T20:34:25.452Z,51.93
2018-03-04T20:36:53.852Z,52.13
2018-03-04T20:39:22.253Z,54.27
2018-03-04T20:41:50.609Z,57.70
2018-03-04T20:44:18.956Z,51.80
2018-03-04T20:46:48.241Z,52.10
2018-03-04T20:49:17.380Z,52.90
2018-03-04T20:51:45.730Z,48.77
2018-03-04T20:54:14.851Z,55.57
2018-03-04T20:56:43.195Z,55.20
2018-03-04T20:59:12.314Z,55.27
2018-03-04T21:01:45.847Z,55.13
2018-03-04T21:04:14.177Z,58.37
2018-03-04T21:06:42.548Z,56.00
2018-03-04T21:09:10.889Z,62.17
2018-03-04T21:11:41.036Z,62.23
2018-03-04T21:14:09.629Z,119.80
2018-03-04T21:16:41.503Z,79.50
2018-03-04T21:19:10.619Z,71.87
2018-03-04T21:21:39.022Z,74.77
2018-03-04T21:24:07.400Z,77.03
2018-03-04T21:26:35.765Z,72.63
2018-03-04T21:29:04.155Z,76.87
2018-03-04T21:31:32.509Z,76.60
2018-03-04T21:34:00.860Z,74.00
2018-03-04T21:36:30.014Z,74.07
2018-03-04T21:38:58.359Z,77.37
2018-03-04T21:41:26.716Z,77.50
2018-03-04T21:43:55.082Z,78.20
2018-03-04T21:46:24.348Z,83.17
2018-03-04T21:48:52.694Z,78.63
2018-03-04T21:51:21.837Z,83.97
2018-03-04T21:53:50.202Z,80.37
2018-03-04T21:56:18.742Z,79.47
2018-03-04T21:58:47.068Z,79.07
2018-03-04T22:01:15.537Z,79.00
2018-03-04T22:03:43.900Z,81.57
2018-03-04T22:06:13.024Z,81.80
2018-03-04T22:08:41.397Z,84.47
2018-03-04T22:11:09.769Z,82.20
2018-03-04T22:13:38.115Z,81.40
2018-03-04T22:16:07.208Z,72.67
2018-03-04T22:18:37.633Z,80.27
2018-03-04T22:21:05.947Z,73.17
2018-03-04T22:23:34.442Z,73.33
2018-03-04T22:26:02.763Z,71.43
2018-03-04T22:28:31.961Z,81.30
2018-03-04T22:31:00.312Z,78.67
2018-03-04T22:33:28.663Z,74.97
2018-03-04T22:35:57.014Z,78.03
2018-03-04T22:38:26.169Z,78.83
2018-03-04T22:40:54.517Z,73.97
2018-03-04T22:43:22.975Z,73.10
2018-03-04T22:45:51.376Z,77.73
2018-03-04T22:48:19.977Z,79.17
2018-03-04T22:50:48.300Z,74.13
2018-03-04T22:53:17.424Z,75.93
2018-03-04T22:55:45.792Z,79.97
2018-03-04T22:58:14.921Z,79.33
2018-03-04T23:00:43.267Z,80.57
2018-03-04T23:03:11.625Z,78.87
2018-03-04T23:05:39.954Z,82.40
2018-03-04T23:08:08.296Z,79.17
2018-03-04T23:10:36.639Z,80.83
2018-03-04T23:13:05.017Z,81.23
2018-03-04T23:15:33.437Z,85.63
2018-03-04T23:18:01.752Z,84.60
2018-03-04T23:20:30.104Z,80.97
2018-03-04T23:22:58.500Z,78.63
2018-03-04T23:25:26.847Z,77.90
2018-03-04T23:27:55.955Z,77.53
2018-03-04T23:30:25.082Z,79.40
2018-03-04T23:32:53.435Z,85.47
2018-03-04T23:35:22.615Z,73.70
2018-03-04T23:37:50.919Z,86.53
2018-03-04T23:40:19.308Z,79.57
2018-03-04T23:42:47.657Z,80.07
2018-03-04T23:45:16.797Z,76.10
2018-03-04T23:47:45.144Z,82.07
2018-03-04T23:50:13.486Z,77.83
2018-03-04T23:52:41.857Z,81.23
2018-03-04T23:55:10.416Z,75.27
2018-03-04T23:57:38.750Z,83.43
